Time;durP1;ratioP1;P1;durP2;ratioP2;P2;SDS_P1;SDS_P2;PMS_P1;PMS_P2;Temp;Humidity;BMP_temperature;BMP_pressure;BME280_temperature;BME280_humidity;BME280_pressure;Samples;Min_cycle;Max_cycle;Signal;HPM_P1;HPM_P2
2023/04/17 00:01:50;;;;;;;21.87;10.73;;;;;;;-141.97;85.77;47718.97;5032441;28;20182;-83
2023/04/17 00:04:15;;;;;;;18.23;9.70;;;;;;;-141.97;85.82;47570.97;5034706;28;20167;-84
2023/04/17 00:06:44;;;;;;;18.83;10.13;;;;;;;-141.97;86.08;47578.66;5036124;28;20223;-84
2023/04/17 00:09:12;;;;;;;19.00;10.43;;;;;;;-141.97;86.17;47734.34;5038896;28;20161;-84
2023/04/17 00:11:38;;;;;;;18.13;10.37;;;;;;;-141.97;86.08;47599.81;5049251;28;20176;-85
2023/04/17 00:14:06;;;;;;;19.33;10.07;;;;;;;-141.97;86.07;47532.53;5056918;28;20210;-86
2023/04/17 00:16:34;;;;;;;19.57;10.90;;;;;;;-141.97;85.78;47667.06;5046560;28;20177;-86
2023/04/17 00:19:00;;;;;;;19.60;10.77;;;;;;;-141.97;86.11;47768.94;5032168;28;20212;-85
2023/04/17 00:21:28;;;;;;;18.80;9.97;;;;;;;-141.97;85.88;47561.38;5031521;28;20174;-86
2023/04/17 00:23:54;;;;;;;18.13;10.23;;;;;;;-141.97;86.16;47678.63;5031346;28;20192;-85
2023/04/17 00:26:19;;;;;;;22.03;10.23;;;;;;;-141.97;86.03;47547.91;5030191;28;20166;-85
2023/04/17 00:28:46;;;;;;;19.37;9.40;;;;;;;-141.97;86.08;47538.28;5031439;28;20166;-85
2023/04/17 00:31:12;;;;;;;18.77;10.03;;;;;;;-141.97;85.97;47665.16;5030442;28;20178;-85
2023/04/17 00:33:37;;;;;;;18.10;9.07;;;;;;;-141.97;85.77;47499.84;5030811;28;20212;-84
2023/04/17 00:36:03;;;;;;;17.20;9.33;;;;;;;-141.97;85.47;47574.81;5047545;28;20307;-85
2023/04/17 00:38:28;;;;;;;18.50;9.47;;;;;;;-141.97;85.45;47782.41;5051039;28;20177;-85
2023/04/17 00:40:54;;;;;;;15.10;8.77;;;;;;;-141.97;85.60;47695.91;5033545;28;20172;-85
2023/04/17 00:43:20;;;;;;;16.83;8.93;;;;;;;-141.97;85.22;47732.44;5033944;28;20549;-85
2023/04/17 00:45:47;;;;;;;18.40;9.47;;;;;;;-141.97;85.26;47686.31;5050838;28;20545;-85
2023/04/17 00:48:14;;;;;;;16.23;9.33;;;;;;;-141.97;84.80;47515.22;5050349;28;20161;-84
2023/04/17 00:50:41;;;;;;;21.53;10.37;;;;;;;-141.97;84.97;47695.91;5033610;28;20177;-85
2023/04/17 00:53:06;;;;;;;18.60;9.93;;;;;;;-141.97;84.27;47717.06;5050990;28;20217;-85
2023/04/17 00:55:34;;;;;;;17.17;9.63;;;;;;;-141.97;84.58;47480.63;5051145;28;20172;-85
2023/04/17 00:58:00;;;;;;;14.80;9.10;;;;;;;-141.97;84.72;47672.84;5033516;28;20176;-85
2023/04/17 01:00:25;;;;;;;15.27;8.97;;;;;;;-141.97;85.04;47684.38;5032751;28;20177;-85
2023/04/17 01:02:51;;;;;;;16.87;9.53;;;;;;;-141.97;85.05;47644.00;5051061;28;20226;-85
2023/04/17 01:05:17;;;;;;;18.77;10.23;;;;;;;-141.97;85.27;47757.41;5033598;28;20639;-85
2023/04/17 01:07:44;;;;;;;19.43;10.17;;;;;;;-141.97;85.34;47705.53;5050899;28;20256;-85
2023/04/17 01:10:10;;;;;;;19.40;9.50;;;;;;;-141.97;85.15;47515.22;5051195;28;20166;-85
2023/04/17 01:12:35;;;;;;;17.17;10.17;;;;;;;-141.97;84.55;47695.91;5051047;28;20226;-85
2023/04/17 01:15:04;;;;;;;18.07;9.93;;;;;;;-141.97;83.86;47640.16;5050660;28;20192;-85
2023/04/17 01:17:30;;;;;;;18.10;9.70;;;;;;;-141.97;83.37;47807.41;5033010;28;20177;-85
2023/04/17 01:19:56;;;;;;;18.77;9.90;;;;;;;-141.97;82.76;47722.81;5051131;28;20157;-85
2023/04/17 01:22:24;;;;;;;23.03;10.43;;;;;;;-141.97;82.82;47694.00;5050831;28;20235;-85
2023/04/17 01:24:50;;;;;;;19.77;10.33;;;;;;;-141.97;82.85;47582.50;5050854;28;20597;-85
2023/04/17 01:27:15;;;;;;;17.37;10.10;;;;;;;-141.97;82.90;47722.81;5050924;28;20351;-85
2023/04/17 01:29:42;;;;;;;18.50;10.70;;;;;;;-141.97;82.39;47507.53;5050770;28;20248;-85
2023/04/17 01:32:08;;;;;;;18.67;10.30;;;;;;;-141.97;82.14;47776.63;5032560;28;20169;-85
2023/04/17 01:34:34;;;;;;;19.97;10.43;;;;;;;-141.97;82.67;47797.78;5032913;28;20604;-84
2023/04/17 01:36:59;;;;;;;19.27;11.40;;;;;;;-141.97;83.42;47653.63;5050747;28;20240;-85
2023/04/17 01:39:25;;;;;;;24.87;13.53;;;;;;;-141.97;83.51;47772.78;5050881;28;20165;-84
2023/04/17 01:41:50;;;;;;;26.00;14.13;;;;;;;-141.97;83.46;47469.09;5052828;28;20177;-85
2023/04/17 01:44:17;;;;;;;26.07;13.60;;;;;;;-141.97;83.16;47784.34;5054264;28;20250;-84
2023/04/17 01:46:42;;;;;;;25.50;12.87;;;;;;;-141.97;83.13;47486.41;5055056;28;20169;-83
2023/04/17 01:49:08;;;;;;;25.37;14.50;;;;;;;-141.97;83.47;47757.41;5051132;28;20173;-85
2023/04/17 01:51:33;;;;;;;29.60;13.80;;;;;;;-141.97;83.37;47511.38;5050823;28;20173;-85
2023/04/17 01:53:59;;;;;;;46.43;22.80;;;;;;;-141.97;82.99;47517.16;5050467;28;20197;-84
2023/04/17 01:56:25;;;;;;;29.83;14.97;;;;;;;-141.97;82.74;47544.06;5050627;28;20165;-85
2023/04/17 01:58:50;;;;;;;20.57;10.70;;;;;;;-141.97;83.65;47755.50;5051184;28;20244;-85
2023/04/17 02:01:16;;;;;;;22.97;11.07;;;;;;;-141.97;85.79;47690.16;5054336;28;20184;-85
2023/04/17 02:03:41;;;;;;;21.27;10.83;;;;;;;-141.97;85.50;47705.53;5035977;28;20169;-85
2023/04/17 02:06:07;;;;;;;18.67;10.87;;;;;;;-141.97;85.62;47699.75;5036508;28;20191;-85
2023/04/17 02:08:33;;;;;;;21.27;10.90;;;;;;;-141.97;84.72;47655.53;5054350;28;20252;-85
2023/04/17 02:10:59;;;;;;;21.40;10.37;;;;;;;-141.97;84.52;47692.06;5038820;28;20176;-85
2023/04/17 02:13:26;;;;;;;21.30;10.20;;;;;;;-141.97;84.46;47749.72;5070671;28;20189;-85
2023/04/17 02:15:52;;;;;;;19.43;9.80;;;;;;;-141.97;84.49;47642.09;5056522;28;20161;-84
2023/04/17 02:18:17;;;;;;;18.30;10.27;;;;;;;-141.97;84.55;47619.03;5054110;28;20172;-84
2023/04/17 02:20:43;;;;;;;18.27;10.13;;;;;;;-141.97;84.14;47459.50;5054001;28;20243;-84
2023/04/17 02:23:08;;;;;;;21.70;10.77;;;;;;;-141.97;84.96;47778.56;5054642;28;20182;-84
2023/04/17 02:25:34;;;;;;;20.23;11.37;;;;;;;-141.97;85.32;47782.41;5058255;28;20660;-81
2023/04/17 02:27:59;;;;;;;19.70;10.70;;;;;;;-141.97;85.16;47740.13;5065268;28;20184;-83
2023/04/17 02:30:26;;;;;;;31.10;15.07;;;;;;;-141.97;84.58;47538.28;5066254;28;20249;-83
2023/04/17 02:32:53;;;;;;;24.80;12.13;;;;;;;-141.97;83.88;47759.34;5057050;28;20177;-84
2023/04/17 02:35:24;;;;;;;22.37;11.27;;;;;;;-141.97;83.68;47765.09;5076066;28;20235;-84
2023/04/17 02:37:49;;;;;;;22.57;11.30;;;;;;;-141.97;83.60;47728.59;5078670;28;20188;-84
2023/04/17 02:40:15;;;;;;;22.40;11.83;;;;;;;-141.97;83.13;47524.84;5065779;28;20173;-84
2023/04/17 02:42:40;;;;;;;20.47;11.27;;;;;;;-141.97;82.98;47546.00;5054218;28;20174;-84
2023/04/17 02:45:07;;;;;;;23.50;10.67;;;;;;;-141.97;84.41;47553.69;5053422;28;20169;-85
2023/04/17 02:47:32;;;;;;;20.17;10.40;;;;;;;-141.97;84.72;47549.84;5035160;28;20173;-84
2023/04/17 02:49:59;;;;;;;20.27;10.27;;;;;;;-141.97;84.38;47570.97;5053058;28;20169;-84
2023/04/17 02:52:27;;;;;;;26.40;11.70;;;;;;;-141.97;84.43;47697.84;5053528;28;20246;-85
2023/04/17 02:54:53;;;;;;;38.03;17.67;;;;;;;-141.97;83.88;47661.31;5035348;28;20197;-84
2023/04/17 02:57:19;;;;;;;22.17;12.33;;;;;;;-141.97;83.74;47678.63;5053134;28;20241;-84
2023/04/17 02:59:44;;;;;;;21.70;11.47;;;;;;;-141.97;83.85;47622.88;5052892;28;20280;-84
2023/04/17 03:02:11;;;;;;;24.37;11.70;;;;;;;-141.97;84.09;47680.53;5052557;28;20212;-84
2023/04/17 03:04:37;;;;;;;24.53;12.10;;;;;;;-141.97;82.95;47595.97;5053352;28;20153;-84
2023/04/17 03:07:03;;;;;;;23.37;11.77;;;;;;;-141.97;81.72;47684.38;5052916;28;20157;-85
2023/04/17 03:09:29;;;;;;;17.30;9.90;;;;;;;-141.97;81.50;47749.72;5035077;28;20180;-85
2023/04/17 03:11:55;;;;;;;18.30;9.53;;;;;;;-141.97;82.55;47761.25;5034997;28;20187;-85
2023/04/17 03:14:21;;;;;;;19.33;9.30;;;;;;;-141.97;82.53;47505.63;5052622;28;20197;-85
2023/04/17 03:16:46;;;;;;;17.80;8.93;;;;;;;-141.97;83.20;47453.72;5052793;28;20236;-84
2023/04/17 03:19:12;;;;;;;21.50;9.70;;;;;;;-141.97;84.33;47624.78;5034433;28;20173;-84
2023/04/17 03:21:37;;;;;;;15.57;8.30;;;;;;;-141.97;83.74;47551.75;5051894;28;20195;-84
2023/04/17 03:24:03;;;;;;;17.30;8.83;;;;;;;-141.97;83.19;47694.00;5052235;28;20177;-83
2023/04/17 03:26:28;;;;;;;16.03;8.30;;;;;;;-141.97;83.90;47792.03;5052585;28;20205;-84
2023/04/17 03:28:54;;;;;;;15.57;8.90;;;;;;;-141.97;83.81;47488.31;5052621;28;20177;-84
2023/04/17 03:31:22;;;;;;;16.27;8.73;;;;;;;-141.97;83.54;47803.56;5052577;28;20165;-84
2023/04/17 03:33:48;;;;;;;17.37;6.97;;;;;;;-141.97;82.40;47607.50;5034537;28;20231;-85
2023/04/17 03:36:13;;;;;;;13.67;7.20;;;;;;;-141.97;82.06;47707.44;5051899;28;20221;-85
2023/04/17 03:38:39;;;;;;;15.80;7.30;;;;;;;-141.97;81.88;47569.06;5052542;28;20169;-86
2023/04/17 03:41:04;;;;;;;17.20;7.67;;;;;;;-141.97;81.51;47757.41;5034896;28;20629;-85
2023/04/17 03:43:30;;;;;;;18.07;7.33;;;;;;;-141.97;81.33;47584.44;5052395;28;20169;-85
2023/04/17 03:45:55;;;;;;;15.50;7.37;;;;;;;-141.97;81.31;47494.09;5034101;28;20176;-85
2023/04/17 03:48:20;;;;;;;13.33;6.70;;;;;;;-141.97;80.59;47730.50;5052050;28;20168;-84
2023/04/17 03:50:47;;;;;;;13.47;6.30;;;;;;;-141.97;80.06;47569.06;5051780;28;20177;-83
2023/04/17 03:53:15;;;;;;;11.87;6.50;;;;;;;-141.97;79.21;47788.19;5034166;28;20283;-85
2023/04/17 03:55:40;;;;;;;11.90;6.47;;;;;;;-141.97;79.12;47647.84;5033899;28;20173;-83
2023/04/17 03:58:06;;;;;;;13.07;6.50;;;;;;;-141.97;78.50;47580.59;5034009;28;20172;-84
2023/04/17 04:00:31;;;;;;;11.43;6.70;;;;;;;-141.97;78.51;47609.41;5051715;28;20260;-84
2023/04/17 04:02:57;;;;;;;15.40;6.93;;;;;;;-141.97;77.99;47661.31;5051521;28;20242;-84
2023/04/17 04:05:22;;;;;;;14.53;7.20;;;;;;;-141.97;77.83;47757.41;5052236;28;20527;-84
2023/04/17 04:07:48;;;;;;;12.17;6.80;;;;;;;-141.97;77.77;47803.56;5051710;28;20252;-85
2023/04/17 04:10:13;;;;;;;13.17;6.63;;;;;;;-141.97;77.16;47780.47;5048524;28;20654;-84
2023/04/17 04:12:42;;;;;;;11.67;6.47;;;;;;;-141.97;76.73;47713.22;5042024;28;20546;-83
2023/04/17 04:15:08;;;;;;;12.47;7.07;;;;;;;-141.97;76.44;47524.84;5041324;28;20190;-83
2023/04/17 04:17:33;;;;;;;14.37;7.20;;;;;;;-141.97;76.71;47780.47;5038250;28;20174;-84
2023/04/17 04:19:59;;;;;;;16.57;8.00;;;;;;;-141.97;76.12;47628.63;5031612;28;20649;-85
2023/04/17 04:22:24;;;;;;;17.97;8.97;;;;;;;-141.97;75.88;47726.66;5030718;28;20158;-85
2023/04/17 04:24:52;;;;;;;15.70;7.10;;;;;;;-141.97;75.62;47772.78;5013801;28;20261;-84
2023/04/17 04:27:21;;;;;;;13.20;6.90;;;;;;;-141.97;75.53;47786.25;5031207;28;20182;-84
2023/04/17 04:29:47;;;;;;;15.33;7.13;;;;;;;-141.97;75.00;47751.66;5013793;28;20170;-85
2023/04/17 04:32:14;;;;;;;15.43;7.33;;;;;;;-141.97;75.15;47809.31;5032949;28;20193;-84
2023/04/17 04:34:40;;;;;;;19.40;8.67;;;;;;;-141.97;74.89;47697.84;5031168;28;20229;-85
2023/04/17 04:37:07;;;;;;;18.57;10.10;;;;;;;-141.97;74.52;47740.13;5030118;28;20174;-84
2023/04/17 04:39:32;;;;;;;22.57;11.03;;;;;;;-141.97;74.42;47605.56;5014531;28;20570;-84
2023/04/17 04:42:04;;;;;;;20.63;12.30;;;;;;;-141.97;73.94;47793.94;5031969;28;20169;-84
2023/04/17 04:44:30;;;;;;;26.53;13.87;;;;;;;-141.97;73.74;47605.56;5032173;28;20545;-84
2023/04/17 04:46:56;;;;;;;29.63;13.87;;;;;;;-141.97;73.56;47647.84;5032085;28;20188;-85
2023/04/17 04:49:21;;;;;;;24.73;13.93;;;;;;;-141.97;73.32;47703.59;5030674;28;20170;-84
2023/04/17 04:51:47;;;;;;;29.80;14.83;;;;;;;-141.97;73.36;47753.56;5013881;28;20194;-84
2023/04/17 04:54:12;;;;;;;25.27;14.50;;;;;;;-141.97;74.02;47530.59;5031887;28;20193;-85
2023/04/17 04:56:38;;;;;;;30.17;15.07;;;;;;;-141.97;74.81;47553.69;5033442;28;20684;-85
2023/04/17 04:59:04;;;;;;;38.37;19.53;;;;;;;-141.97;74.90;47772.78;5043110;28;20205;-83
2023/04/17 05:01:29;;;;;;;40.03;19.43;;;;;;;-141.97;75.15;47734.34;5055873;28;20154;-84
2023/04/17 05:03:55;;;;;;;34.57;18.03;;;;;;;-141.97;75.66;47788.19;5040328;28;20162;-84
2023/04/17 05:06:20;;;;;;;31.43;14.47;;;;;;;-141.97;75.86;47734.34;5017094;28;20166;-83
2023/04/17 05:08:46;;;;;;;23.87;11.20;;;;;;;-141.97;75.24;47638.25;5036039;28;20166;-84
2023/04/17 05:11:11;;;;;;;21.07;10.43;;;;;;;-141.97;75.61;47601.72;5039731;28;20162;-84
2023/04/17 05:13:37;;;;;;;24.70;10.70;;;;;;;-141.97;76.34;47565.22;5030934;28;20194;-85
2023/04/17 05:16:02;;;;;;;22.83;10.97;;;;;;;-141.97;76.43;47557.53;5035385;28;20217;-82
2023/04/17 05:18:28;;;;;;;19.90;10.83;;;;;;;-141.97;76.69;47751.66;5034145;28;20196;-85
2023/04/17 05:21:03;;;;;;;23.73;11.53;;;;;;;-141.97;76.62;47680.53;5042722;28;20194;-81
2023/04/17 05:23:28;;;;;;;22.93;11.60;;;;;;;-141.97;76.82;47653.63;5054945;28;20162;-84
2023/04/17 05:25:54;;;;;;;28.03;12.73;;;;;;;-141.97;77.85;47607.50;5037654;28;20204;-83
2023/04/17 05:28:19;;;;;;;24.00;11.80;;;;;;;-141.97;78.55;47690.16;5038472;28;20219;-83
2023/04/17 05:30:45;;;;;;;34.10;14.17;;;;;;;-141.97;78.85;47747.81;5016114;28;20261;-85
2023/04/17 05:33:10;;;;;;;29.37;13.60;;;;;;;-141.97;79.20;47549.84;5032578;28;20197;-83
2023/04/17 05:35:35;;;;;;;35.93;15.40;;;;;;;-141.97;78.59;47768.94;5036231;28;20283;-85
2023/04/17 05:38:01;;;;;;;41.27;17.07;;;;;;;-141.97;79.07;47772.78;5035620;28;20236;-84
2023/04/17 05:40:27;;;;;;;36.40;16.77;;;;;;;-141.97;79.12;47655.53;5025641;28;20626;-82
2023/04/17 05:42:52;;;;;;;42.43;18.73;;;;;;;-141.97;79.64;47599.81;5037928;28;20588;-81
2023/04/17 05:45:18;;;;;;;46.20;23.17;;;;;;;-141.97;79.49;47703.59;5037121;28;20173;-83
2023/04/17 05:47:44;;;;;;;43.27;19.90;;;;;;;-141.97;79.00;47745.88;5055161;28;20169;-83
2023/04/17 05:50:09;;;;;;;42.30;20.13;;;;;;;-141.97;78.22;47622.88;5055059;28;20179;-84
2023/04/17 05:52:36;;;;;;;42.87;20.03;;;;;;;-141.97;77.66;47490.25;5045256;28;20173;-83
2023/04/17 05:55:02;;;;;;;36.80;19.23;;;;;;;-141.97;76.59;47732.44;5020221;28;20204;-83
2023/04/17 05:57:29;;;;;;;40.80;20.03;;;;;;;-141.97;76.51;47734.34;5035284;28;20178;-84
2023/04/17 05:59:54;;;;;;;39.97;20.67;;;;;;;-141.97;76.13;47780.47;5017270;28;20166;-84
2023/04/17 06:02:20;;;;;;;36.57;17.43;;;;;;;-141.97;74.51;47580.59;5041990;28;20528;-84
2023/04/17 06:04:45;;;;;;;42.70;17.80;;;;;;;-141.97;73.96;47642.09;5016321;28;20254;-84
2023/04/17 06:07:11;;;;;;;34.50;16.90;;;;;;;-141.97;73.42;47661.31;5034047;28;20282;-84
2023/04/17 06:09:40;;;;;;;33.80;17.17;;;;;;;-141.97;72.46;47701.69;5017175;28;20178;-82
2023/04/17 06:12:06;;;;;;;28.27;14.03;;;;;;;-141.97;71.00;47553.69;5039511;28;20586;-83
2023/04/17 06:14:34;;;;;;;21.07;12.13;;;;;;;-141.97;67.80;47572.91;5037546;28;20269;-81
2023/04/17 06:17:02;;;;;;;25.37;11.80;;;;;;;-141.97;65.95;47509.47;5039002;28;20271;-84
2023/04/17 06:19:28;;;;;;;22.40;12.23;;;;;;;-141.97;64.28;47717.06;5017435;28;20576;-83
2023/04/17 06:21:53;;;;;;;22.23;12.23;;;;;;;-141.97;65.35;47624.78;5017705;28;20163;-82
2023/04/17 06:24:22;;;;;;;27.63;13.37;;;;;;;-141.97;66.12;47682.47;5018473;28;20637;-82
2023/04/17 06:26:47;;;;;;;25.60;12.63;;;;;;;-141.97;66.80;47757.41;5047887;28;20174;-83
2023/04/17 06:29:14;;;;;;;24.97;13.40;;;;;;;-141.97;67.03;47736.28;5043540;28;20228;-83
2023/04/17 06:31:40;;;;;;;19.10;10.47;;;;;;;-141.97;66.02;47805.47;5041800;28;20285;-83
2023/04/17 06:34:05;;;;;;;30.43;12.03;;;;;;;-141.97;65.34;47517.16;5058319;28;20189;-83
2023/04/17 06:36:32;;;;;;;21.43;11.20;;;;;;;-141.97;64.85;47521.00;5056878;28;20228;-81
2023/04/17 06:38:57;;;;;;;22.50;11.80;;;;;;;-141.97;64.23;47486.41;5054235;28;20161;-84
2023/04/17 06:41:23;;;;;;;22.53;11.90;;;;;;;-141.97;62.81;47553.69;5055574;28;20165;-84
2023/04/17 06:43:48;;;;;;;20.80;12.20;;;;;;;-141.97;62.89;47661.31;5054370;28;20162;-84
2023/04/17 06:46:13;;;;;;;23.83;12.73;;;;;;;-141.97;64.09;47478.72;5054368;28;20264;-84
2023/04/17 06:48:39;;;;;;;25.53;12.70;;;;;;;-141.97;64.52;47778.56;5057260;28;20169;-84
2023/04/17 06:51:05;;;;;;;28.67;15.20;;;;;;;-141.97;64.72;47749.72;5057904;28;20161;-85
2023/04/17 06:53:30;;;;;;;26.57;11.87;;;;;;;-141.97;63.73;47718.97;5057372;28;20185;-85
2023/04/17 06:55:56;;;;;;;22.63;11.83;;;;;;;-141.97;64.47;47582.50;5058622;28;20185;-83
2023/04/17 06:58:22;;;;;;;24.90;13.43;;;;;;;-141.97;65.08;47474.88;5056884;28;20184;-85
2023/04/17 07:00:47;;;;;;;23.17;12.17;;;;;;;-141.97;65.21;47649.78;5039279;28;20194;-83
2023/04/17 07:03:13;;;;;;;25.73;11.83;;;;;;;-141.97;64.62;47711.28;5038953;28;20174;-85
2023/04/17 07:05:39;;;;;;;23.67;11.97;;;;;;;-141.97;65.11;47703.59;5061486;28;20162;-85
2023/04/17 07:08:04;;;;;;;23.27;11.73;;;;;;;-141.97;65.63;47519.06;5040874;28;20177;-85
2023/04/17 07:10:30;;;;;;;20.70;11.27;;;;;;;-141.97;65.79;47651.69;5037699;28;20229;-86
2023/04/17 07:12:55;;;;;;;20.63;11.13;;;;;;;-141.97;64.63;47515.22;5038783;28;20154;-84
2023/04/17 07:15:21;;;;;;;18.40;11.10;;;;;;;-141.97;64.11;47722.81;5035513;28;20166;-85
2023/04/17 07:17:46;;;;;;;18.50;10.50;;;;;;;-141.97;64.37;47707.44;5035136;28;20226;-86
2023/04/17 07:20:12;;;;;;;39.00;21.93;;;;;;;-141.97;64.04;47745.88;5034062;28;20190;-84
2023/04/17 07:22:37;;;;;;;15.77;9.83;;;;;;;-141.97;63.42;47476.78;5039493;28;20249;-85
2023/04/17 07:25:06;;;;;;;17.97;9.83;;;;;;;-141.97;63.36;47776.63;5057251;28;20185;-84
2023/04/17 07:27:32;;;;;;;17.03;9.90;;;;;;;-141.97;63.76;47747.81;5043565;28;20169;-85
2023/04/17 07:29:57;;;;;;;17.00;11.03;;;;;;;-141.97;65.15;47630.56;5036502;28;20170;-86
2023/04/17 07:32:23;;;;;;;19.90;10.87;;;;;;;-141.97;65.53;47745.88;5034652;28;20170;-84
2023/04/17 07:34:49;;;;;;;16.67;10.30;;;;;;;-141.97;65.02;47634.41;5047469;28;20610;-85
2023/04/17 07:37:15;;;;;;;25.60;14.20;;;;;;;-141.97;64.90;47699.75;5053845;28;20194;-84
2023/04/17 07:39:41;;;;;;;20.53;11.77;;;;;;;-141.97;64.73;47699.75;5037320;28;20166;-83
2023/04/17 07:42:09;;;;;;;15.97;10.93;;;;;;;-141.97;64.54;47649.78;5040343;28;20197;-85
2023/04/17 07:44:34;;;;;;;18.07;11.70;;;;;;;-141.97;64.92;47709.38;5015928;28;20551;-84
2023/04/17 07:47:00;;;;;;;18.47;12.70;;;;;;;-141.97;64.57;47651.69;5033401;28;20166;-83
2023/04/17 07:49:26;;;;;;;26.63;16.17;;;;;;;-141.97;64.48;47753.56;5036549;28;20233;-83
2023/04/17 07:51:52;;;;;;;20.67;14.30;;;;;;;-141.97;nan;47795.88;5038541;28;20235;-84
2023/04/17 07:54:17;;;;;;;21.80;14.07;;;;;;;-141.97;66.65;47469.09;5033349;28;20588;-84
2023/04/17 07:56:45;;;;;;;23.90;15.17;;;;;;;-141.97;68.11;47507.53;5018810;28;20614;-83
2023/04/17 07:59:11;;;;;;;23.60;14.27;;;;;;;-141.97;70.19;47682.47;5021066;28;20162;-85
2023/04/17 08:01:37;;;;;;;22.63;15.47;;;;;;;-141.97;70.96;47718.97;5018045;28;20170;-83
2023/04/17 08:04:03;;;;;;;25.97;16.47;;;;;;;-141.97;71.02;47818.94;5016739;28;20684;-84
2023/04/17 08:06:28;;;;;;;25.60;15.80;;;;;;;-141.97;71.01;47669.00;5018195;28;20598;-85
2023/04/17 08:08:54;;;;;;;27.93;17.90;;;;;;;-141.97;70.74;47669.00;5016119;28;20176;-85
2023/04/17 08:11:19;;;;;;;22.77;15.13;;;;;;;-141.97;71.19;47561.38;5033408;28;20249;-85
2023/04/17 08:13:45;;;;;;;22.43;15.27;;;;;;;-141.97;71.71;47632.47;5016400;28;20221;-86
2023/04/17 08:16:11;;;;;;;26.37;15.60;;;;;;;-141.97;72.84;47665.16;5032561;28;20537;-84
2023/04/17 08:18:36;;;;;;;22.80;14.27;;;;;;;-141.97;72.75;47669.00;5032197;28;20541;-84
2023/04/17 08:21:03;;;;;;;22.63;14.67;;;;;;;-141.97;73.23;47692.06;5031593;28;20568;-85
2023/04/17 08:23:28;;;;;;;24.27;14.93;;;;;;;-141.97;72.70;47695.91;5014347;28;20641;-85
2023/04/17 08:25:54;;;;;;;23.43;13.80;;;;;;;-141.97;72.91;47743.97;5014857;28;20308;-85
2023/04/17 08:28:20;;;;;;;21.87;13.80;;;;;;;-141.97;71.95;47745.88;5031575;28;20165;-85
2023/04/17 08:30:45;;;;;;;24.10;14.00;;;;;;;-141.97;71.42;47530.59;5032114;28;20201;-84
2023/04/17 08:33:12;;;;;;;25.23;13.63;;;;;;;-141.97;70.99;47818.94;5014711;28;20166;-84
2023/04/17 08:35:37;;;;;;;28.47;13.50;;;;;;;-141.97;71.30;47732.44;5032300;28;20777;-84
2023/04/17 08:38:03;;;;;;;24.30;13.20;;;;;;;-141.97;70.94;47730.50;5032233;28;20201;-85
2023/04/17 08:40:28;;;;;;;25.07;13.93;;;;;;;-141.97;71.19;47524.84;5032113;28;20256;-86
2023/04/17 08:42:54;;;;;;;26.73;14.30;;;;;;;-141.97;71.58;47759.34;5031669;28;20210;-84
2023/04/17 08:45:22;;;;;;;23.87;13.57;;;;;;;-141.97;70.78;47657.47;5032176;28;20249;-84
2023/04/17 08:47:48;;;;;;;25.33;13.60;;;;;;;-141.97;71.65;47751.66;5031460;28;20157;-85
2023/04/17 08:50:17;;;;;;;28.43;13.80;;;;;;;-141.97;72.01;47653.63;5034121;28;20166;-85
2023/04/17 08:52:48;;;;;;;24.70;13.90;;;;;;;-141.97;71.76;47809.31;5045941;28;20226;-85
2023/04/17 08:55:16;;;;;;;26.93;14.47;;;;;;;-141.97;71.66;47757.41;5054193;28;20197;-85
2023/04/17 08:58:04;;;;;;;25.20;15.27;;;;;;;-141.97;73.30;47749.72;5048994;28;20181;-84
2023/04/17 09:00:41;;;;;;;25.40;15.47;;;;;;;-141.97;73.53;47553.69;5051564;28;20625;-83
2023/04/17 09:03:09;;;;;;;25.87;16.10;;;;;;;-141.97;73.42;47624.78;5033596;28;20223;-85
2023/04/17 09:05:36;;;;;;;25.40;15.90;;;;;;;-141.97;73.60;47715.13;5051745;28;20193;-85
2023/04/17 09:08:10;;;;;;;23.17;15.20;;;;;;;-141.97;73.12;47682.47;5034719;28;20170;-86
2023/04/17 09:10:37;;;;;;;23.70;15.50;;;;;;;-141.97;71.69;47684.38;5055315;28;20161;-86
2023/04/17 09:13:03;;;;;;;22.53;14.03;;;;;;;-141.97;70.90;47690.16;5037698;28;20191;-85
2023/04/17 09:15:29;;;;;;;23.87;14.33;;;;;;;-141.97;69.87;47653.63;5037846;28;20185;-85
2023/04/17 09:17:55;;;;;;;22.30;15.07;;;;;;;-141.97;69.35;47670.91;5037859;28;20177;-85
2023/04/17 09:20:21;;;;;;;23.23;15.70;;;;;;;-141.97;68.75;47511.38;5037187;28;20169;-85
2023/04/17 09:22:47;;;;;;;23.90;15.43;;;;;;;-141.97;69.60;47672.84;5038217;28;20217;-85
2023/04/17 09:25:16;;;;;;;22.37;15.60;;;;;;;-141.97;69.48;47676.69;5035140;28;20642;-85
2023/04/17 09:27:42;;;;;;;22.37;15.03;;;;;;;-141.97;69.16;47638.25;5037808;28;20979;-85
2023/04/17 09:30:07;;;;;;;21.27;14.97;;;;;;;-141.97;68.84;47544.06;5036978;28;20162;-85
2023/04/17 09:32:34;;;;;;;22.53;14.63;;;;;;;-141.97;68.85;47665.16;5054218;28;20162;-84
2023/04/17 09:35:04;;;;;;;18.37;14.10;;;;;;;-141.97;68.75;47742.03;5054155;28;20644;-85
2023/04/17 09:37:55;;;;;;;19.63;13.67;;;;;;;-141.97;67.34;47678.63;5054623;28;20221;-85
2023/04/17 09:40:23;;;;;;;18.80;14.03;;;;;;;-141.97;67.02;47661.31;5054345;28;20165;-85
2023/04/17 09:43:01;;;;;;;20.17;14.47;;;;;;;-141.97;67.20;47726.66;5054459;28;20676;-85
2023/04/17 09:45:35;;;;;;;19.23;14.83;;;;;;;-141.97;67.15;47838.16;5053142;28;20241;-84
2023/04/17 09:48:07;;;;;;;20.53;15.27;;;;;;;-141.97;67.72;47717.06;5042843;28;20208;-86
2023/04/17 09:50:33;;;;;;;20.53;15.63;;;;;;;-141.97;67.61;47745.88;5053869;28;20577;-86
2023/04/17 09:53:01;;;;;;;23.10;17.03;;;;;;;-141.97;67.17;47784.34;5051443;28;20227;-84
2023/04/17 09:55:28;;;;;;;22.23;16.20;;;;;;;-141.97;67.66;47678.63;5050896;28;20157;-84
2023/04/17 09:57:55;;;;;;;22.00;16.37;;;;;;;-141.97;68.11;47780.47;5053281;28;20160;-85
2023/04/17 10:00:22;;;;;;;22.13;16.53;;;;;;;-141.97;68.63;47842.00;5053264;28;20180;-85
2023/04/17 10:02:52;;;;;;;21.00;16.33;;;;;;;-141.97;68.39;47638.25;5053046;28;20161;-84
2023/04/17 10:05:19;;;;;;;22.40;16.93;;;;;;;-141.97;67.46;47751.66;5053273;28;20237;-85
2023/04/17 10:07:45;;;;;;;21.33;15.77;;;;;;;-141.97;66.05;47657.47;5053370;28;20196;-86
2023/04/17 10:10:20;;;;;;;20.37;15.20;;;;;;;-141.97;66.86;47803.56;5053286;28;20153;-86
2023/04/17 10:12:47;;;;;;;20.43;15.20;;;;;;;-141.97;67.14;47522.91;5046629;28;20657;-86
2023/04/17 10:15:14;;;;;;;23.43;16.13;;;;;;;-141.97;67.90;47672.84;5035248;28;20194;-86
2023/04/17 10:17:41;;;;;;;25.57;17.13;;;;;;;-141.97;68.10;47747.81;5042212;28;20150;-87
2023/04/17 10:20:19;;;;;;;21.13;15.57;;;;;;;-141.97;67.37;47711.28;5039317;28;20161;-85
2023/04/17 10:22:55;;;;;;;23.00;16.37;;;;;;;-141.97;67.50;47674.78;5039522;28;20177;-86
2023/04/17 10:25:25;;;;;;;23.33;17.13;;;;;;;-141.97;67.67;47603.66;5047421;28;20196;-87
2023/04/17 10:28:01;;;;;;;22.17;17.03;;;;;;;-141.97;68.62;47703.59;5053808;28;20212;-84
2023/04/17 10:30:50;;;;;;;23.03;17.37;;;;;;;-141.97;68.22;47638.25;5053157;28;20168;-85
2023/04/17 10:33:18;;;;;;;24.77;17.93;;;;;;;-141.97;70.27;47669.00;5053122;28;20181;-84
2023/04/17 10:35:44;;;;;;;24.73;16.97;;;;;;;-141.97;72.39;47703.59;5052951;28;20559;-86
2023/04/17 10:38:10;;;;;;;23.50;16.50;;;;;;;-141.97;72.11;47657.47;5035825;28;20185;-85
2023/04/17 10:40:37;;;;;;;26.90;18.13;;;;;;;-141.97;73.25;47851.59;5054056;28;20610;-85
2023/04/17 10:43:22;;;;;;;25.43;18.33;;;;;;;-141.97;72.57;47592.13;5053584;28;20551;-86
2023/04/17 10:46:02;;;;;;;24.07;15.73;;;;;;;-141.97;72.82;47695.91;5053771;28;20161;-85
2023/04/17 10:48:29;;;;;;;28.50;19.33;;;;;;;-141.97;73.50;47690.16;5035207;28;20205;-85
2023/04/17 10:50:55;;;;;;;28.43;20.23;;;;;;;-141.97;74.05;47661.31;5053175;28;20169;-84
2023/04/17 10:53:37;;;;;;;30.47;20.80;;;;;;;-141.97;74.16;47680.53;5053002;28;20166;-86
2023/04/17 10:56:03;;;;;;;27.33;18.03;;;;;;;-141.97;73.68;47674.78;5034742;28;20213;-86
2023/04/17 10:58:29;;;;;;;31.57;20.67;;;;;;;-141.97;74.47;47695.91;5035162;28;20266;-85
2023/04/17 11:00:55;;;;;;;35.33;20.83;;;;;;;-141.97;73.98;47484.47;5053233;28;20177;-84
2023/04/17 11:03:24;;;;;;;32.07;20.17;;;;;;;-141.97;73.70;47778.56;5066943;28;20284;-84